createdAt,value
2018-12-18T00:02:13.097Z,15.20
2018-12-18T00:04:39.680Z,16.10
2018-12-18T00:07:06.312Z,15.50
2018-12-18T00:09:32.900Z,14.67
2018-12-18T00:11:59.596Z,15.20
2018-12-18T00:14:26.186Z,14.43
2018-12-18T00:16:52.667Z,13.70
2018-12-18T00:19:19.138Z,14.70
2018-12-18T00:21:45.500Z,14.17
2018-12-18T00:24:12.082Z,13.73
2018-12-18T00:26:38.658Z,16.53
2018-12-18T00:29:05.126Z,15.80
2018-12-18T00:31:33.127Z,14.70
2018-12-18T00:33:59.823Z,15.10
2018-12-18T00:36:26.311Z,15.47
2018-12-18T00:38:52.792Z,16.20
2018-12-18T00:41:19.519Z,16.73
2018-12-18T00:43:46.093Z,16.27
2018-12-18T00:46:12.462Z,14.57
2018-12-18T00:48:39.051Z,14.07
2018-12-18T00:51:05.526Z,13.83
2018-12-18T00:53:32.123Z,14.87
2018-12-18T00:55:58.716Z,14.83
2018-12-18T00:58:25.211Z,14.97
2018-12-18T01:00:51.803Z,14.73
2018-12-18T01:03:18.272Z,15.03
2018-12-18T01:05:44.855Z,15.23
2018-12-18T01:08:11.429Z,14.60
2018-12-18T01:10:38.114Z,15.10
2018-12-18T01:13:04.607Z,13.17
2018-12-18T01:15:30.962Z,13.00
2018-12-18T01:17:57.546Z,13.27
2018-12-18T01:20:24.027Z,12.87
2018-12-18T01:22:50.510Z,12.87
2018-12-18T01:25:16.988Z,11.90
2018-12-18T01:27:43.479Z,13.20
2018-12-18T01:30:10.054Z,12.33
2018-12-18T01:32:39.558Z,12.90
2018-12-18T01:35:06.248Z,13.73
2018-12-18T01:37:32.845Z,14.03
2018-12-18T01:39:59.321Z,14.13
2018-12-18T01:42:26.032Z,12.90
2018-12-18T01:44:52.721Z,12.80
2018-12-18T01:47:19.198Z,13.87
2018-12-18T01:49:45.827Z,13.80
2018-12-18T01:52:12.443Z,15.17
2018-12-18T01:54:39.023Z,15.73
2018-12-18T01:57:05.391Z,16.17
2018-12-18T01:59:31.747Z,15.57
2018-12-18T02:01:58.379Z,15.97
2018-12-18T02:04:24.863Z,14.23
2018-12-18T02:06:51.344Z,14.50
2018-12-18T02:09:18.063Z,15.30
2018-12-18T02:11:44.538Z,14.50
2018-12-18T02:14:10.909Z,14.70
2018-12-18T02:16:37.509Z,15.17
2018-12-18T02:19:03.990Z,15.33
2018-12-18T02:21:30.703Z,13.63
2018-12-18T02:23:57.211Z,15.03
2018-12-18T02:26:23.562Z,14.63
2018-12-18T02:28:50.269Z,14.63
2018-12-18T02:31:16.853Z,14.43
2018-12-18T02:33:43.351Z,15.73
2018-12-18T02:36:09.966Z,15.17
2018-12-18T02:38:36.577Z,14.77
2018-12-18T02:41:03.271Z,14.93
2018-12-18T02:43:29.753Z,15.20
2018-12-18T02:45:56.249Z,14.83
2018-12-18T02:48:22.836Z,14.10
2018-12-18T02:50:49.319Z,14.83
2018-12-18T02:53:15.939Z,14.97
2018-12-18T02:55:42.440Z,15.60
2018-12-18T02:58:08.915Z,14.53
2018-12-18T03:00:35.459Z,15.10
2018-12-18T03:03:02.062Z,15.33
2018-12-18T03:05:28.534Z,14.80
2018-12-18T03:07:55.230Z,14.83
2018-12-18T03:10:21.814Z,15.50
2018-12-18T03:12:48.331Z,16.00
2018-12-18T03:15:14.840Z,14.67
2018-12-18T03:17:41.343Z,15.80
2018-12-18T03:20:07.816Z,15.77
2018-12-18T03:22:34.279Z,15.83
2018-12-18T03:25:00.783Z,15.77
2018-12-18T03:27:27.304Z,14.20
2018-12-18T03:29:53.902Z,14.60
2018-12-18T03:32:22.001Z,16.13
2018-12-18T03:34:48.517Z,16.10
2018-12-18T03:37:15.000Z,17.00
2018-12-18T03:39:41.511Z,15.10
2018-12-18T03:42:08.003Z,16.47
2018-12-18T03:44:34.482Z,15.83
2018-12-18T03:47:01.059Z,14.90
2018-12-18T03:49:27.571Z,16.53
2018-12-18T03:51:54.166Z,13.30
2018-12-18T03:54:20.534Z,13.53
2018-12-18T03:56:47.119Z,13.73
2018-12-18T03:59:13.473Z,13.40
2018-12-18T04:01:39.959Z,13.03
2018-12-18T04:04:06.559Z,13.57
2018-12-18T04:06:33.311Z,14.23
2018-12-18T04:08:59.923Z,13.80
2018-12-18T04:11:26.523Z,13.10
2018-12-18T04:13:53.163Z,15.23
2018-12-18T04:16:19.759Z,15.40
2018-12-18T04:18:46.300Z,13.40
2018-12-18T04:21:12.813Z,13.93
2018-12-18T04:23:39.172Z,13.40
2018-12-18T04:26:05.770Z,14.60
2018-12-18T04:28:32.454Z,14.87
2018-12-18T04:30:59.166Z,14.93
2018-12-18T04:33:25.769Z,15.27
2018-12-18T04:35:52.358Z,14.93
2018-12-18T04:38:18.707Z,15.03
2018-12-18T04:40:45.191Z,15.13
2018-12-18T04:43:11.777Z,14.53
2018-12-18T04:45:38.258Z,15.70
2018-12-18T04:48:04.731Z,14.90
2018-12-18T04:50:31.214Z,14.10
2018-12-18T04:52:57.814Z,14.00
2018-12-18T04:55:24.516Z,14.27
2018-12-18T04:57:51.008Z,14.80
2018-12-18T05:00:17.601Z,13.17
2018-12-18T05:02:44.294Z,12.77
2018-12-18T05:05:10.751Z,12.93
2018-12-18T05:07:37.338Z,12.63
2018-12-18T05:10:03.831Z,13.80
2018-12-18T05:12:30.532Z,14.93
2018-12-18T05:14:57.005Z,13.83
2018-12-18T05:17:23.462Z,14.67
2018-12-18T05:19:50.042Z,15.10
2018-12-18T05:22:16.563Z,14.33
2018-12-18T05:24:43.038Z,14.67
2018-12-18T05:27:09.700Z,13.53
2018-12-18T05:29:36.377Z,14.50
2018-12-18T05:32:02.964Z,14.30
2018-12-18T05:34:29.548Z,16.37
2018-12-18T05:36:56.160Z,15.03
2018-12-18T05:39:22.629Z,14.77
2018-12-18T05:41:49.127Z,13.63
2018-12-18T05:44:15.616Z,12.17
2018-12-18T05:46:41.976Z,14.20
2018-12-18T05:49:08.475Z,13.63
2018-12-18T05:51:36.187Z,13.67
2018-12-18T05:54:02.792Z,14.17
2018-12-18T05:56:29.366Z,13.57
2018-12-18T05:58:55.958Z,13.00
2018-12-18T06:01:22.434Z,13.40
2018-12-18T06:03:49.022Z,12.50
2018-12-18T06:06:15.505Z,14.33
2018-12-18T06:08:42.130Z,12.87
2018-12-18T06:11:08.711Z,12.87
2018-12-18T06:13:35.306Z,12.83
2018-12-18T06:16:01.659Z,12.70
2018-12-18T06:18:28.135Z,13.40
2018-12-18T06:20:54.727Z,14.33
2018-12-18T06:23:21.323Z,14.40
2018-12-18T06:25:47.807Z,15.40
2018-12-18T06:28:14.162Z,15.30
2018-12-18T06:30:40.674Z,14.83
2018-12-18T06:33:07.262Z,15.63
2018-12-18T06:35:33.788Z,14.70
2018-12-18T06:38:00.281Z,16.40
2018-12-18T06:40:26.778Z,16.53
2018-12-18T06:42:53.417Z,17.23
2018-12-18T06:45:20.075Z,17.57
2018-12-18T06:47:46.564Z,17.13
2018-12-18T06:50:13.259Z,16.27
2018-12-18T06:52:39.859Z,13.70
2018-12-18T06:55:06.458Z,14.10
2018-12-18T06:57:32.823Z,16.77
2018-12-18T06:59:59.420Z,14.33
2018-12-18T07:02:26.102Z,13.00
2018-12-18T07:04:52.689Z,13.37
2018-12-18T07:07:19.043Z,14.17
2018-12-18T07:09:45.635Z,15.43
2018-12-18T07:12:12.112Z,13.87
2018-12-18T07:14:38.582Z,13.67
2018-12-18T07:17:05.051Z,13.70
2018-12-18T07:19:31.527Z,13.73
2018-12-18T07:21:58.126Z,12.80
2018-12-18T07:24:24.619Z,13.57
2018-12-18T07:26:51.198Z,13.67
2018-12-18T07:29:17.695Z,12.57
2018-12-18T07:31:44.179Z,12.30
2018-12-18T07:34:10.786Z,13.80
2018-12-18T07:36:37.276Z,13.17
2018-12-18T07:39:05.064Z,13.77
2018-12-18T07:41:31.572Z,16.63
2018-12-18T07:43:57.923Z,16.43
2018-12-18T07:46:24.510Z,15.53
2018-12-18T07:48:51.203Z,12.63
2018-12-18T07:51:17.584Z,11.87
2018-12-18T07:53:44.093Z,15.10
2018-12-18T07:56:10.613Z,16.97
2018-12-18T07:58:37.018Z,20.33
2018-12-18T08:01:03.605Z,16.47
2018-12-18T08:03:29.960Z,16.17
2018-12-18T08:05:56.553Z,14.80
2018-12-18T08:08:23.135Z,14.10
2018-12-18T08:10:49.724Z,12.97
2018-12-18T08:13:16.418Z,12.93
2018-12-18T08:15:43.619Z,11.63
2018-12-18T08:18:10.186Z,11.47
2018-12-18T08:20:36.545Z,11.07
2018-12-18T08:23:03.009Z,11.37
2018-12-18T08:25:29.494Z,10.87
2018-12-18T08:27:56.074Z,12.47
2018-12-18T08:30:22.663Z,12.53
2018-12-18T08:32:49.140Z,12.23
2018-12-18T08:35:15.698Z,16.37
2018-12-18T08:37:42.200Z,16.67
2018-12-18T08:40:08.641Z,14.60
2018-12-18T08:42:35.237Z,13.47
2018-12-18T08:45:01.810Z,14.50
2018-12-18T08:47:28.402Z,14.23
2018-12-18T08:49:54.759Z,13.33
2018-12-18T08:52:21.374Z,13.23
2018-12-18T08:54:47.959Z,15.00
2018-12-18T08:57:14.658Z,23.40
2018-12-18T08:59:41.351Z,14.70
2018-12-18T09:02:07.934Z,14.07
2018-12-18T09:04:34.515Z,15.50
2018-12-18T09:07:01.215Z,22.87
2018-12-18T09:09:27.806Z,15.63
2018-12-18T09:11:54.506Z,13.97
2018-12-18T09:14:21.078Z,14.07
2018-12-18T09:16:49.603Z,14.43
2018-12-18T09:19:15.954Z,14.10
2018-12-18T09:21:42.568Z,14.27
2018-12-18T09:24:09.038Z,12.40
2018-12-18T09:26:35.542Z,11.47
2018-12-18T09:29:02.130Z,11.37
2018-12-18T09:31:28.706Z,11.57
2018-12-18T09:33:55.322Z,11.50
2018-12-18T09:36:21.903Z,11.80
2018-12-18T09:38:50.324Z,12.23
2018-12-18T09:41:19.502Z,11.50
2018-12-18T09:43:47.994Z,12.57
2018-12-18T09:46:14.592Z,12.10
2018-12-18T09:48:41.118Z,11.70
2018-12-18T09:51:07.728Z,10.83
2018-12-18T09:53:34.342Z,12.90
2018-12-18T09:56:00.917Z,11.87
2018-12-18T09:58:27.742Z,11.90
2018-12-18T10:00:55.637Z,11.90
2018-12-18T10:03:22.314Z,12.10
2018-12-18T10:05:48.905Z,11.33
2018-12-18T10:08:15.390Z,11.37
2018-12-18T10:10:41.866Z,10.73
2018-12-18T10:13:08.459Z,11.03
2018-12-18T10:15:34.938Z,9.77
2018-12-18T10:18:01.535Z,10.70
2018-12-18T10:20:28.110Z,10.13
2018-12-18T10:22:54.699Z,11.50
2018-12-18T10:25:21.163Z,11.03
2018-12-18T10:27:47.674Z,11.17
2018-12-18T10:30:14.150Z,11.07
2018-12-18T10:32:40.739Z,10.70
2018-12-18T10:35:07.329Z,11.33
2018-12-18T10:37:33.812Z,12.80
2018-12-18T10:40:00.374Z,12.83
2018-12-18T10:42:26.963Z,12.53
2018-12-18T10:44:53.460Z,11.80
2018-12-18T10:47:19.946Z,11.20
2018-12-18T10:49:46.543Z,10.47
2018-12-18T10:52:13.135Z,11.33
2018-12-18T10:54:39.722Z,10.13
2018-12-18T10:57:06.308Z,12.10
2018-12-18T10:59:32.907Z,9.87
2018-12-18T11:02:01.284Z,9.37
2018-12-18T11:04:27.874Z,9.93
2018-12-18T11:06:54.452Z,9.70
2018-12-18T11:09:20.910Z,10.75
2018-12-18T11:11:47.266Z,12.50
2018-12-18T11:14:13.859Z,12.73
2018-12-18T11:16:40.360Z,12.30
2018-12-18T11:19:06.834Z,12.63
2018-12-18T11:21:33.333Z,12.37
2018-12-18T11:23:59.692Z,12.43
2018-12-18T11:26:26.291Z,11.67
2018-12-18T11:28:52.867Z,10.20
2018-12-18T11:31:19.567Z,11.23
2018-12-18T11:33:46.146Z,11.00
2018-12-18T11:36:16.521Z,11.70
2018-12-18T11:38:41.193Z,9.33
2018-12-18T11:41:07.783Z,8.70
2018-12-18T11:43:34.370Z,8.17
2018-12-18T11:46:00.967Z,7.45
2018-12-18T11:48:27.557Z,7.58
2018-12-18T11:50:54.150Z,7.30
2018-12-18T11:53:20.616Z,6.50
2018-12-18T11:55:47.118Z,6.12
2018-12-18T11:58:13.590Z,5.33
2018-12-18T12:00:40.285Z,5.87
2018-12-18T12:03:06.772Z,4.72
2018-12-18T12:05:33.146Z,8.88
2018-12-18T12:07:59.743Z,5.10
2018-12-18T12:10:26.317Z,6.08
2018-12-18T12:12:52.807Z,6.33
2018-12-18T12:15:19.283Z,6.17
2018-12-18T12:17:45.761Z,5.00
2018-12-18T12:20:12.276Z,5.10
2018-12-18T12:22:38.639Z,5.72
2018-12-18T12:25:06.142Z,5.95
2018-12-18T12:27:33.127Z,8.30
2018-12-18T12:29:59.716Z,5.28
2018-12-18T12:32:26.306Z,4.70
2018-12-18T12:34:52.658Z,5.62
2018-12-18T12:37:19.256Z,4.45
2018-12-18T12:39:45.931Z,3.98
2018-12-18T12:42:12.422Z,4.65
2018-12-18T12:44:39.116Z,4.45
2018-12-18T12:47:05.711Z,4.73
2018-12-18T12:49:35.907Z,4.30
2018-12-18T12:52:02.523Z,3.35
2018-12-18T12:54:29.237Z,5.58
2018-12-18T12:56:56.042Z,4.45
2018-12-18T12:59:22.382Z,3.58
2018-12-18T13:01:48.964Z,3.83
2018-12-18T13:04:15.451Z,5.30
2018-12-18T13:06:42.049Z,4.40
2018-12-18T13:09:08.650Z,4.58
2018-12-18T13:11:35.228Z,4.60
2018-12-18T13:14:01.702Z,5.47
2018-12-18T13:16:28.299Z,7.60
2018-12-18T13:18:54.791Z,5.10
2018-12-18T13:21:21.374Z,5.40
2018-12-18T13:23:47.874Z,4.67
2018-12-18T13:26:14.450Z,6.47
2018-12-18T13:28:41.048Z,4.83
2018-12-18T13:31:07.528Z,4.93
2018-12-18T13:33:34.001Z,5.10
2018-12-18T13:36:00.362Z,4.97
2018-12-18T13:38:26.843Z,4.90
2018-12-18T13:40:53.530Z,5.60
2018-12-18T13:43:20.118Z,5.67
2018-12-18T13:45:46.707Z,5.70
2018-12-18T13:48:13.160Z,5.77
2018-12-18T13:50:39.751Z,5.30
2018-12-18T13:53:06.348Z,5.90
2018-12-18T13:55:36.658Z,5.33
2018-12-18T13:58:01.409Z,5.33
2018-12-18T14:00:27.775Z,5.30
2018-12-18T14:02:54.366Z,5.47
2018-12-18T14:05:21.064Z,5.70
2018-12-18T14:07:47.551Z,7.03
2018-12-18T14:10:14.030Z,6.73
2018-12-18T14:12:40.518Z,7.23
2018-12-18T14:15:07.736Z,7.03
2018-12-18T14:17:34.434Z,7.33
2018-12-18T14:20:00.828Z,8.27
2018-12-18T14:22:27.430Z,8.87
2018-12-18T14:24:53.814Z,8.57
2018-12-18T14:27:20.556Z,8.30
2018-12-18T14:29:47.295Z,8.33
2018-12-18T14:32:13.890Z,8.57
2018-12-18T14:34:40.379Z,9.10
2018-12-18T14:37:06.752Z,8.70
2018-12-18T14:39:33.113Z,9.30
2018-12-18T14:41:59.831Z,10.20
2018-12-18T14:44:26.418Z,10.67
2018-12-18T14:46:53.027Z,12.27
2018-12-18T14:49:19.632Z,13.27
2018-12-18T14:51:46.360Z,11.60
2018-12-18T14:54:13.254Z,11.77
2018-12-18T14:56:39.617Z,10.27
2018-12-18T14:59:06.102Z,10.80
2018-12-18T15:01:32.552Z,10.60
2018-12-18T15:03:59.253Z,11.23
2018-12-18T15:06:26.002Z,11.87
2018-12-18T15:08:52.346Z,12.90
2018-12-18T15:11:19.063Z,10.80
2018-12-18T15:13:45.642Z,11.40
2018-12-18T15:16:12.133Z,10.80
2018-12-18T15:18:38.881Z,10.07
2018-12-18T15:21:05.782Z,10.47
2018-12-18T15:23:32.209Z,10.03
2018-12-18T15:25:58.675Z,9.23
2018-12-18T15:28:25.270Z,10.67
2018-12-18T15:30:51.843Z,10.33
2018-12-18T15:33:19.122Z,10.63
2018-12-18T15:35:45.698Z,11.07
2018-12-18T15:38:12.171Z,10.50
2018-12-18T15:40:39.529Z,11.60
2018-12-18T15:43:06.133Z,11.03
2018-12-18T15:45:32.478Z,10.87
2018-12-18T15:47:59.175Z,12.33
2018-12-18T15:50:25.870Z,10.93
2018-12-18T15:52:52.607Z,10.53
2018-12-18T15:55:19.066Z,12.33
2018-12-18T15:57:45.417Z,11.93
2018-12-18T16:00:12.306Z,11.57
2018-12-18T16:02:39.029Z,12.90
2018-12-18T16:05:05.733Z,12.60
2018-12-18T16:07:32.226Z,13.33
2018-12-18T16:09:58.817Z,12.37
2018-12-18T16:12:26.542Z,13.03
2018-12-18T16:14:53.243Z,13.30
2018-12-18T16:17:19.666Z,15.10
2018-12-18T16:19:46.383Z,15.00
2018-12-18T16:22:12.734Z,15.00
2018-12-18T16:24:39.337Z,14.97
2018-12-18T16:27:05.918Z,14.17
2018-12-18T16:29:32.424Z,14.23
2018-12-18T16:31:59.004Z,15.57
2018-12-18T16:34:25.378Z,18.27
2018-12-18T16:36:51.963Z,25.40
2018-12-18T16:39:18.443Z,17.83
2018-12-18T16:41:44.930Z,20.87
2018-12-18T16:44:11.547Z,17.73
2018-12-18T16:46:38.038Z,17.23
2018-12-18T16:49:04.709Z,15.33
2018-12-18T16:51:32.724Z,19.70
2018-12-18T16:53:59.102Z,19.03
2018-12-18T16:56:25.600Z,17.53
2018-12-18T16:58:52.090Z,17.27
2018-12-18T17:01:18.431Z,14.43
2018-12-18T17:03:44.918Z,14.90
2018-12-18T17:06:11.502Z,14.90
2018-12-18T17:08:38.883Z,17.57
2018-12-18T17:11:05.398Z,18.43
2018-12-18T17:13:31.890Z,14.73
2018-12-18T17:15:58.411Z,15.77
2018-12-18T17:18:24.766Z,14.80
2018-12-18T17:20:51.259Z,14.60
2018-12-18T17:23:17.729Z,13.57
2018-12-18T17:25:44.330Z,16.87
2018-12-18T17:28:10.910Z,14.20
2018-12-18T17:30:37.398Z,20.53
2018-12-18T17:33:03.976Z,10.87
2018-12-18T17:35:30.585Z,10.73
2018-12-18T17:37:57.048Z,12.80
2018-12-18T17:40:23.653Z,11.30
2018-12-18T17:42:50.364Z,13.43
2018-12-18T17:45:16.856Z,12.33
2018-12-18T17:47:43.436Z,12.93
2018-12-18T17:50:09.939Z,14.07
2018-12-18T17:52:36.537Z,13.23
2018-12-18T17:55:03.434Z,14.03
2018-12-18T17:57:30.040Z,12.73
2018-12-18T17:59:56.630Z,11.60
2018-12-18T18:02:23.254Z,13.20
2018-12-18T18:04:49.975Z,13.23
2018-12-18T18:07:16.675Z,12.87
2018-12-18T18:09:43.346Z,12.90
2018-12-18T18:12:10.055Z,12.83
2018-12-18T18:14:36.539Z,14.57
2018-12-18T18:17:03.019Z,15.73
2018-12-18T18:19:29.384Z,14.43
2018-12-18T18:21:56.034Z,14.50
2018-12-18T18:24:22.542Z,14.13
2018-12-18T18:26:49.064Z,15.67
2018-12-18T18:29:15.654Z,12.33
2018-12-18T18:31:42.390Z,13.73
2018-12-18T18:34:08.877Z,15.07
2018-12-18T18:36:35.367Z,16.67
2018-12-18T18:39:03.682Z,14.20
2018-12-18T18:41:30.387Z,13.33
2018-12-18T18:43:56.854Z,14.30
2018-12-18T18:46:23.334Z,16.23
2018-12-18T18:48:49.945Z,15.60
2018-12-18T18:51:16.658Z,15.10
2018-12-18T18:53:43.039Z,15.17
2018-12-18T18:56:09.609Z,15.43
2018-12-18T18:58:35.975Z,16.00
2018-12-18T19:01:02.521Z,14.47
2018-12-18T19:03:29.005Z,15.93
2018-12-18T19:05:55.370Z,16.03
2018-12-18T19:08:21.839Z,15.73
2018-12-18T19:10:48.328Z,14.43
2018-12-18T19:13:14.837Z,15.70
2018-12-18T19:15:41.436Z,16.40
2018-12-18T19:18:08.138Z,15.80
2018-12-18T19:20:34.722Z,18.57
2018-12-18T19:23:01.094Z,16.43
2018-12-18T19:25:27.682Z,15.87
2018-12-18T19:27:54.287Z,15.37
2018-12-18T19:30:20.982Z,15.50
2018-12-18T19:32:47.587Z,16.23
2018-12-18T19:35:14.298Z,17.43
2018-12-18T19:37:40.790Z,17.03
2018-12-18T19:40:07.383Z,16.50
2018-12-18T19:42:34.103Z,15.90
2018-12-18T19:45:00.705Z,14.43
2018-12-18T19:47:27.190Z,16.47
2018-12-18T19:49:53.583Z,16.53
2018-12-18T19:52:20.074Z,14.93
2018-12-18T19:54:46.778Z,15.03
2018-12-18T19:57:13.275Z,15.03
2018-12-18T19:59:39.635Z,16.27
2018-12-18T20:02:06.234Z,17.00
2018-12-18T20:04:32.839Z,15.90
2018-12-18T20:06:59.323Z,18.10
2018-12-18T20:09:25.690Z,15.93
2018-12-18T20:11:52.172Z,16.33
2018-12-18T20:14:18.775Z,17.53
2018-12-18T20:16:45.130Z,16.40
2018-12-18T20:19:11.751Z,16.70
2018-12-18T20:21:38.233Z,18.03
2018-12-18T20:24:04.715Z,17.10
2018-12-18T20:26:31.210Z,17.70
2018-12-18T20:28:57.576Z,18.57
2018-12-18T20:31:24.179Z,15.50
2018-12-18T20:33:50.773Z,17.27
2018-12-18T20:36:17.274Z,16.70
2018-12-18T20:38:43.639Z,18.93
2018-12-18T20:41:10.019Z,17.20
2018-12-18T20:43:36.502Z,19.13
2018-12-18T20:46:03.104Z,16.70
2018-12-18T20:48:29.690Z,16.37
2018-12-18T20:50:56.392Z,17.53
2018-12-18T20:53:22.761Z,18.47
2018-12-18T20:55:49.606Z,17.00
2018-12-18T20:58:16.211Z,16.30
2018-12-18T21:00:42.941Z,18.67
2018-12-18T21:03:09.650Z,21.85
2018-12-18T21:05:36.166Z,17.93
2018-12-18T21:08:02.870Z,16.23
2018-12-18T21:10:29.765Z,17.30
2018-12-18T21:12:58.270Z,17.43
2018-12-18T21:15:24.864Z,16.27
2018-12-18T21:17:51.574Z,15.63
2018-12-18T21:20:19.570Z,16.77
2018-12-18T21:22:46.283Z,16.63
2018-12-18T21:25:18.779Z,14.87
2018-12-18T21:27:42.331Z,16.73
2018-12-18T21:30:08.842Z,15.27
2018-12-18T21:32:35.435Z,15.50
2018-12-18T21:35:02.527Z,13.90
2018-12-18T21:37:29.220Z,14.63
2018-12-18T21:39:55.701Z,15.10
2018-12-18T21:42:23.110Z,15.07
2018-12-18T21:44:50.028Z,14.97
2018-12-18T21:47:16.459Z,14.90
2018-12-18T21:49:43.239Z,15.47
2018-12-18T21:52:09.846Z,14.67
2018-12-18T21:54:36.433Z,14.70
2018-12-18T21:57:03.032Z,16.77
2018-12-18T21:59:29.615Z,14.43
2018-12-18T22:01:56.239Z,15.87
2018-12-18T22:04:23.059Z,15.63
2018-12-18T22:06:49.494Z,14.97
2018-12-18T22:09:16.264Z,15.03
2018-12-18T22:11:42.753Z,14.87
2018-12-18T22:14:09.225Z,14.70
2018-12-18T22:16:35.609Z,14.77
2018-12-18T22:19:02.205Z,15.20
2018-12-18T22:21:28.791Z,14.70
2018-12-18T22:23:55.631Z,14.23
2018-12-18T22:26:22.123Z,13.70
2018-12-18T22:28:48.598Z,14.13
2018-12-18T22:31:15.175Z,15.17
2018-12-18T22:33:41.657Z,13.53
2018-12-18T22:36:08.139Z,14.03
2018-12-18T22:38:34.834Z,13.70
2018-12-18T22:41:01.417Z,14.83
2018-12-18T22:43:27.903Z,13.77
2018-12-18T22:45:54.262Z,13.13
2018-12-18T22:48:20.887Z,12.97
2018-12-18T22:50:47.361Z,14.00
2018-12-18T22:53:13.960Z,13.63
2018-12-18T22:55:44.779Z,13.40
2018-12-18T22:58:09.610Z,13.13
2018-12-18T23:00:38.003Z,12.60
2018-12-18T23:03:04.367Z,12.83
2018-12-18T23:05:31.070Z,12.73
2018-12-18T23:07:57.546Z,14.30
2018-12-18T23:10:24.128Z,13.93
2018-12-18T23:12:50.959Z,14.67
2018-12-18T23:15:17.464Z,13.93
2018-12-18T23:17:44.058Z,15.77
2018-12-18T23:20:10.580Z,15.07
2018-12-18T23:22:37.042Z,14.90
2018-12-18T23:25:03.760Z,16.77
2018-12-18T23:27:30.451Z,14.60
2018-12-18T23:29:56.942Z,14.37
2018-12-18T23:32:23.434Z,15.00
2018-12-18T23:34:49.934Z,14.70
2018-12-18T23:37:16.421Z,16.57
2018-12-18T23:39:42.790Z,15.30
2018-12-18T23:42:09.503Z,14.33
2018-12-18T23:44:36.299Z,15.33
2018-12-18T23:47:02.994Z,15.77
2018-12-18T23:49:29.363Z,15.17
2018-12-18T23:51:55.839Z,14.53
2018-12-18T23:54:22.434Z,15.57
2018-12-18T23:56:48.925Z,14.90
2018-12-18T23:59:15.396Z,15.27
